ePrivacy and GPDR Cookie Consent by Cookie Consent
EmailTwitter


Observations de surface / France / LFBP (07610)

Régions: Québec | Canada | États-Unis | Europe | France | UK | Ailleurs
Station
Affichage
Infos & localisation pour LFBP (07610) | Aide pour décoder les METARs

Observations prises le 2021-09-21 à 22H00 UTC à PONT-LONG-UZEIN/, FR (LFBP)

Etat du ciel: partiellement nuageux.

Température: 14.0 Celsius

Point de rosée: 13.0 Celsius

Humidité relative: 94%

Vents: Est à 6 km/h ou 3 noeuds.

Pression au niveau moyen de la mer: 102.50 kilopascals.

Visibilité horizontale: 6.21 milles terrestres ou 9.94 kilomètres.

Hauteur du plafond: 6401 mètres ( 21000 pieds ).

Observation METAR:

LFBP 212200Z AUTO 10003KT 9999 FEW072 BKN210 BKN240 14/13 Q1025 NOSIG=